createdAt,value
2018-08-07T00:00:26.443Z,74.70
2018-08-07T00:02:54.986Z,74.80
2018-08-07T00:05:23.394Z,75.00
2018-08-07T00:07:53.081Z,74.90
2018-08-07T00:10:22.752Z,75.20
2018-08-07T00:15:19.815Z,75.30
2018-08-07T00:17:48.292Z,75.50
2018-08-07T00:20:17.616Z,75.40
2018-08-07T00:22:46.550Z,75.80
2018-08-07T00:25:15.107Z,76.20
2018-08-07T00:27:43.791Z,77.10
2018-08-07T00:30:13.644Z,75.90
2018-08-07T00:32:42.114Z,76.30
2018-08-07T00:35:16.262Z,76.30
2018-08-07T00:37:45.038Z,76.10
2018-08-07T00:40:15.642Z,76.60
2018-08-07T00:42:44.823Z,76.60
2018-08-07T00:45:15.908Z,76.80
2018-08-07T00:50:15.266Z,77.10
2018-08-07T00:52:44.971Z,77.30
2018-08-07T00:55:13.494Z,77.40
2018-08-07T00:57:41.991Z,77.60
2018-08-07T01:00:11.903Z,77.30
2018-08-07T01:02:40.411Z,77.80
2018-08-07T01:05:11.596Z,78.40
2018-08-07T01:07:40.206Z,79.40
2018-08-07T01:10:11.122Z,79.90
2018-08-07T01:12:39.578Z,79.90
2018-08-07T01:15:12.782Z,79.20
2018-08-07T01:17:41.310Z,78.80
2018-08-07T01:20:12.866Z,78.70
2018-08-07T01:22:41.788Z,79.50
2018-08-07T01:25:13.770Z,80.20
2018-08-07T01:27:42.151Z,80.70
2018-08-07T01:30:13.240Z,80.90
2018-08-07T01:32:41.582Z,80.20
2018-08-07T01:35:09.963Z,80.20
2018-08-07T01:37:38.969Z,80.30
2018-08-07T01:40:09.033Z,80.90
2018-08-07T01:42:37.403Z,81.20
2018-08-07T01:45:06.138Z,81.80
2018-08-07T01:47:34.492Z,82.10
2018-08-07T01:50:03.041Z,82.00
2018-08-07T01:52:31.462Z,82.20
2018-08-07T01:54:59.825Z,82.20
2018-08-07T01:57:28.374Z,81.90
2018-08-07T01:59:56.709Z,81.70
2018-08-07T02:02:25.059Z,81.40
2018-08-07T02:04:53.606Z,81.30
2018-08-07T02:09:50.003Z,82.50
2018-08-07T02:12:18.516Z,83.00
2018-08-07T02:14:46.878Z,84.00
2018-08-07T02:17:15.290Z,83.20
2018-08-07T02:19:43.656Z,83.30
2018-08-07T02:22:12.008Z,83.20
2018-08-07T02:24:40.516Z,83.50
2018-08-07T02:27:08.882Z,83.50
2018-08-07T02:29:37.220Z,83.60
2018-08-07T02:32:05.620Z,84.00
2018-08-07T02:34:33.954Z,84.20
2018-08-07T02:37:02.386Z,84.10
2018-08-07T02:39:30.738Z,84.60
2018-08-07T02:41:59.167Z,84.80
2018-08-07T02:44:27.522Z,85.00
2018-08-07T02:46:55.885Z,85.30
2018-08-07T02:49:24.310Z,85.20
2018-08-07T02:51:52.671Z,84.90
2018-08-07T02:54:21.002Z,84.70
2018-08-07T02:56:49.394Z,85.20
2018-08-07T02:59:17.725Z,85.60
2018-08-07T03:01:46.057Z,86.80
2018-08-07T03:04:14.435Z,87.30
2018-08-07T03:06:42.795Z,87.30
2018-08-07T03:09:12.019Z,87.40
2018-08-07T03:11:40.747Z,88.10
2018-08-07T03:14:09.161Z,86.80
2018-08-07T03:16:37.627Z,86.50
2018-08-07T03:19:05.969Z,87.20
2018-08-07T03:21:34.381Z,87.80
2018-08-07T03:24:02.807Z,87.90
2018-08-07T03:26:31.261Z,87.90
2018-08-07T03:28:59.686Z,88.00
2018-08-07T03:31:28.238Z,88.70
2018-08-07T03:33:56.607Z,88.00
2018-08-07T03:36:24.938Z,87.80
2018-08-07T03:38:53.308Z,87.00
2018-08-07T03:41:21.666Z,86.60
2018-08-07T03:43:50.062Z,86.90
2018-08-07T03:46:18.397Z,87.40
2018-08-07T03:48:46.774Z,87.90
2018-08-07T03:51:15.101Z,88.50
2018-08-07T03:53:43.518Z,88.80
2018-08-07T03:56:11.857Z,89.40
2018-08-07T03:58:40.210Z,89.50
2018-08-07T04:01:08.595Z,89.60
2018-08-07T04:03:36.997Z,89.50
2018-08-07T04:06:05.514Z,89.80
2018-08-07T04:08:33.847Z,89.30
2018-08-07T04:11:02.185Z,88.20
2018-08-07T04:13:30.581Z,88.10
2018-08-07T04:15:59.710Z,88.70
2018-08-07T04:18:28.137Z,89.40
2018-08-07T04:20:56.666Z,89.60
2018-08-07T04:23:24.986Z,89.40
2018-08-07T04:25:53.338Z,89.20
2018-08-07T04:28:21.717Z,89.20
2018-08-07T04:30:50.054Z,89.80
2018-08-07T04:33:18.425Z,89.10
2018-08-07T04:35:46.797Z,88.70
2018-08-07T04:38:15.137Z,89.00
2018-08-07T04:40:43.538Z,89.60
2018-08-07T04:43:12.057Z,89.80
2018-08-07T04:45:40.404Z,90.00
2018-08-07T04:48:08.746Z,90.00
2018-08-07T04:50:37.148Z,89.90
2018-08-07T04:53:05.628Z,89.70
2018-08-07T04:55:34.070Z,90.00
2018-08-07T04:58:02.573Z,89.70
2018-08-07T05:00:31.009Z,89.60
2018-08-07T05:02:59.592Z,89.10
2018-08-07T05:05:28.471Z,89.20
2018-08-07T05:07:56.837Z,90.00
2018-08-07T05:10:25.243Z,90.10
2018-08-07T05:12:53.513Z,89.80
2018-08-07T05:15:21.842Z,90.30
2018-08-07T05:17:50.233Z,90.20
2018-08-07T05:20:18.646Z,90.30
2018-08-07T05:22:47.170Z,90.10
2018-08-07T05:25:15.514Z,90.10
2018-08-07T05:27:43.851Z,90.30
2018-08-07T05:30:14.665Z,90.00
2018-08-07T05:32:43.181Z,90.00
2018-08-07T05:35:12.881Z,90.00
2018-08-07T05:37:41.360Z,90.00
2018-08-07T05:40:10.529Z,89.70
2018-08-07T05:42:39.491Z,89.40
2018-08-07T05:45:09.488Z,89.30
2018-08-07T05:47:38.141Z,88.60
2018-08-07T05:50:09.547Z,89.40
2018-08-07T05:52:37.967Z,90.00
2018-08-07T05:55:06.812Z,90.00
2018-08-07T05:57:35.204Z,90.00
2018-08-07T06:00:05.281Z,90.00
2018-08-07T06:02:33.690Z,89.60
2018-08-07T06:05:02.090Z,88.50
2018-08-07T06:07:30.698Z,88.60
2018-08-07T06:09:59.119Z,88.60
2018-08-07T06:12:27.529Z,89.00
2018-08-07T06:14:55.948Z,88.70
2018-08-07T06:17:24.325Z,89.60
2018-08-07T06:19:52.739Z,89.40
2018-08-07T06:22:21.123Z,89.00
2018-08-07T06:24:49.514Z,89.90
2018-08-07T06:27:17.931Z,88.60
2018-08-07T06:29:46.298Z,89.20
2018-08-07T06:32:14.786Z,89.80
2018-08-07T06:34:43.222Z,89.60
2018-08-07T06:37:11.609Z,89.30
2018-08-07T06:39:40.001Z,89.50
2018-08-07T06:44:36.533Z,89.50
2018-08-07T06:47:04.974Z,89.40
2018-08-07T06:49:33.410Z,89.10
2018-08-07T06:52:01.803Z,88.60
2018-08-07T06:54:30.339Z,88.50
2018-08-07T06:59:26.796Z,88.10
2018-08-07T07:01:55.197Z,88.10
2018-08-07T07:04:23.569Z,88.60
2018-08-07T07:06:51.961Z,87.70
2018-08-07T07:09:20.327Z,87.70
2018-08-07T07:11:48.952Z,87.40
2018-08-07T07:14:17.333Z,87.30
2018-08-07T07:16:45.697Z,87.60
2018-08-07T07:19:14.089Z,85.40
2018-08-07T07:21:42.437Z,84.00
2018-08-07T07:26:39.084Z,82.50
2018-08-07T07:29:07.453Z,80.40
2018-08-07T07:31:35.842Z,76.70
2018-08-07T07:34:04.412Z,77.50
2018-08-07T07:36:32.745Z,77.30
2018-08-07T07:39:01.139Z,77.70
2018-08-07T07:41:29.578Z,79.10
2018-08-07T07:43:57.990Z,77.90
2018-08-07T07:46:26.433Z,76.20
2018-08-07T07:48:54.858Z,74.60
2018-08-07T07:51:23.249Z,73.80
2018-08-07T07:53:51.659Z,71.90
2018-08-07T07:56:20.021Z,70.60
2018-08-07T07:58:48.518Z,70.50
2018-08-07T08:01:16.897Z,71.50
2018-08-07T08:03:45.263Z,74.00
2018-08-07T08:06:13.801Z,73.10
2018-08-07T08:08:42.161Z,73.40
2018-08-07T08:11:10.647Z,72.80
2018-08-07T08:13:38.988Z,74.10
2018-08-07T08:16:07.373Z,72.40
2018-08-07T08:18:35.828Z,72.40
2018-08-07T08:21:04.217Z,72.40
2018-08-07T08:23:32.665Z,74.10
2018-08-07T08:26:01.098Z,76.10
2018-08-07T08:28:29.570Z,74.10
2018-08-07T08:30:58.054Z,73.40
2018-08-07T08:33:26.454Z,73.70
2018-08-07T08:35:54.854Z,73.50
2018-08-07T08:38:23.275Z,73.50
2018-08-07T08:40:51.698Z,72.00
2018-08-07T08:43:20.066Z,72.10
2018-08-07T08:45:48.460Z,70.00
2018-08-07T08:48:16.902Z,71.40
2018-08-07T08:50:45.272Z,69.90
2018-08-07T08:53:13.838Z,72.30
2018-08-07T08:55:42.213Z,71.00
2018-08-07T08:58:10.586Z,68.30
2018-08-07T09:00:39.196Z,68.20
2018-08-07T09:03:07.619Z,68.50
2018-08-07T09:05:36.061Z,68.90
2018-08-07T09:08:04.894Z,70.40
2018-08-07T09:10:33.483Z,68.00
2018-08-07T09:13:02.334Z,67.70
2018-08-07T09:15:30.769Z,68.60
2018-08-07T09:17:59.426Z,68.70
2018-08-07T09:20:30.193Z,68.60
2018-08-07T09:22:59.240Z,67.70
2018-08-07T09:25:28.462Z,68.60
2018-08-07T09:27:56.774Z,68.60
2018-08-07T09:30:26.490Z,69.20
2018-08-07T09:32:55.685Z,69.10
2018-08-07T09:35:24.665Z,70.60
2018-08-07T09:37:53.298Z,71.50
2018-08-07T09:40:22.437Z,69.80
2018-08-07T09:42:52.290Z,68.80
2018-08-07T09:45:23.727Z,71.70
2018-08-07T09:47:52.147Z,69.10
2018-08-07T09:50:21.129Z,70.30
2018-08-07T09:52:49.785Z,70.00
2018-08-07T09:55:18.370Z,70.10
2018-08-07T09:57:46.755Z,69.20
2018-08-07T10:00:25.362Z,69.80
2018-08-07T10:02:57.076Z,70.00
2018-08-07T10:05:27.070Z,70.40
2018-08-07T10:07:55.359Z,70.40
2018-08-07T10:10:23.841Z,70.70
2018-08-07T10:12:52.267Z,74.90
2018-08-07T10:15:20.677Z,74.50
2018-08-07T10:17:49.287Z,70.70
2018-08-07T10:20:17.657Z,70.90
2018-08-07T10:22:46.061Z,72.60
2018-08-07T10:25:16.214Z,70.30
2018-08-07T10:27:45.840Z,69.00
2018-08-07T10:30:15.914Z,69.50
2018-08-07T10:32:44.421Z,70.30
2018-08-07T10:35:13.370Z,70.60
2018-08-07T10:37:42.498Z,72.20
2018-08-07T10:40:12.737Z,70.60
2018-08-07T10:42:41.233Z,73.40
2018-08-07T10:45:12.631Z,73.50
2018-08-07T10:47:41.609Z,72.10
2018-08-07T10:50:22.649Z,69.90
2018-08-07T10:52:51.602Z,69.90
2018-08-07T10:55:20.810Z,68.70
2018-08-07T10:57:50.873Z,68.00
2018-08-07T11:00:22.635Z,68.10
2018-08-07T11:02:51.825Z,69.00
2018-08-07T11:05:20.685Z,67.80
2018-08-07T11:07:49.070Z,67.40
2018-08-07T11:10:17.762Z,66.50
2018-08-07T11:12:46.273Z,66.80
2018-08-07T11:15:19.909Z,66.10
2018-08-07T11:17:49.225Z,66.50
2018-08-07T11:20:17.676Z,66.70
2018-08-07T11:22:47.780Z,67.30
2018-08-07T11:25:17.224Z,66.50
2018-08-07T11:27:45.649Z,66.90
2018-08-07T11:30:17.279Z,66.10
2018-08-07T11:32:46.091Z,65.50
2018-08-07T11:35:15.021Z,64.20
2018-08-07T11:37:44.752Z,65.30
2018-08-07T11:40:16.082Z,66.40
2018-08-07T11:42:45.697Z,67.50
2018-08-07T11:45:15.480Z,66.20
2018-08-07T11:50:14.142Z,65.90
2018-08-07T11:52:42.872Z,66.40
2018-08-07T11:55:13.088Z,66.20
2018-08-07T11:57:41.733Z,65.20
2018-08-07T12:00:15.139Z,64.90
2018-08-07T12:02:43.798Z,65.40
2018-08-07T12:05:12.225Z,65.80
2018-08-07T12:07:40.794Z,66.50
2018-08-07T12:10:10.942Z,66.30
2018-08-07T12:12:39.810Z,67.00
2018-08-07T12:15:10.258Z,66.80
2018-08-07T12:17:38.941Z,65.80
2018-08-07T12:20:07.999Z,65.60
2018-08-07T12:25:04.981Z,66.70
2018-08-07T12:27:33.411Z,66.50
2018-08-07T12:30:01.966Z,66.70
2018-08-07T12:34:59.243Z,66.60
2018-08-07T12:37:27.734Z,67.10
2018-08-07T12:39:56.179Z,67.00
2018-08-07T12:42:24.534Z,67.70
2018-08-07T12:44:53.145Z,67.70
2018-08-07T12:47:21.510Z,67.50
2018-08-07T12:49:49.861Z,67.40
2018-08-07T12:52:18.258Z,67.10
2018-08-07T12:54:46.729Z,67.10
2018-08-07T12:57:15.106Z,67.60
2018-08-07T12:59:43.537Z,69.80
2018-08-07T13:02:11.958Z,68.00
2018-08-07T13:04:40.383Z,68.10
2018-08-07T13:07:08.763Z,68.60
2018-08-07T13:09:37.161Z,68.40
2018-08-07T13:12:05.534Z,68.40
2018-08-07T13:14:34.139Z,69.00
2018-08-07T13:17:02.518Z,68.70
2018-08-07T13:19:31.011Z,68.60
2018-08-07T13:21:59.527Z,69.00
2018-08-07T13:24:27.965Z,69.20
2018-08-07T13:26:56.549Z,69.80
2018-08-07T13:29:25.075Z,70.40
2018-08-07T13:31:53.453Z,70.50
2018-08-07T13:34:21.886Z,71.10
2018-08-07T13:36:50.270Z,71.30
2018-08-07T13:39:18.709Z,70.50
2018-08-07T13:41:47.083Z,70.80
2018-08-07T13:44:15.625Z,70.70
2018-08-07T13:46:43.973Z,71.00
2018-08-07T13:49:12.329Z,71.20
2018-08-07T13:51:40.861Z,71.60
2018-08-07T13:54:09.184Z,71.50
2018-08-07T13:56:37.541Z,71.10
2018-08-07T13:59:06.045Z,71.20
2018-08-07T14:01:34.405Z,70.90
2018-08-07T14:04:02.777Z,71.20
2018-08-07T14:06:31.172Z,71.40
2018-08-07T14:08:59.664Z,71.50
2018-08-07T14:11:28.094Z,71.60
2018-08-07T14:13:56.468Z,72.00
2018-08-07T14:16:24.933Z,72.00
2018-08-07T14:18:53.305Z,72.20
2018-08-07T14:21:21.717Z,71.90
2018-08-07T14:23:50.130Z,72.00
2018-08-07T14:26:18.554Z,72.20
2018-08-07T14:28:47.065Z,72.30
2018-08-07T14:31:15.389Z,72.80
2018-08-07T14:33:43.791Z,74.00
2018-08-07T14:36:12.172Z,74.70
2018-08-07T14:38:40.574Z,75.60
2018-08-07T14:41:08.977Z,75.90
2018-08-07T14:43:37.343Z,76.40
2018-08-07T14:46:05.997Z,76.80
2018-08-07T14:48:34.414Z,76.20
2018-08-07T14:51:02.904Z,76.70
2018-08-07T14:53:31.461Z,76.90
2018-08-07T14:55:59.877Z,76.50
2018-08-07T14:58:28.252Z,76.90
2018-08-07T15:00:56.680Z,77.30
2018-08-07T15:03:25.023Z,77.80
2018-08-07T15:05:53.437Z,78.20
2018-08-07T15:08:21.885Z,78.70
2018-08-07T15:10:50.324Z,79.00
2018-08-07T15:13:18.692Z,79.20
2018-08-07T15:15:47.269Z,78.40
2018-08-07T15:18:15.666Z,76.60
2018-08-07T15:20:44.047Z,76.90
2018-08-07T15:23:12.457Z,77.20
2018-08-07T15:25:40.833Z,77.40
2018-08-07T15:28:09.418Z,77.50
2018-08-07T15:30:37.793Z,77.50
2018-08-07T15:33:06.208Z,77.40
2018-08-07T15:35:34.613Z,77.10
2018-08-07T15:38:03.018Z,77.80
2018-08-07T15:40:31.437Z,78.70
2018-08-07T15:42:59.830Z,78.40
2018-08-07T15:45:28.425Z,78.60
2018-08-07T15:47:56.799Z,77.60
2018-08-07T15:50:25.158Z,77.70
2018-08-07T15:52:54.670Z,78.00
2018-08-07T15:55:24.542Z,77.50
2018-08-07T15:57:52.991Z,77.30
2018-08-07T16:00:24.713Z,76.50
2018-08-07T16:02:53.584Z,75.90
2018-08-07T16:05:21.936Z,75.70
2018-08-07T16:07:51.318Z,75.30
2018-08-07T16:10:20.352Z,75.00
2018-08-07T16:12:49.762Z,75.20
2018-08-07T16:15:18.345Z,75.20
2018-08-07T16:17:47.642Z,74.70
2018-08-07T16:20:16.110Z,74.70
2018-08-07T16:22:44.650Z,75.30
2018-08-07T16:25:14.162Z,74.20
2018-08-07T16:27:43.482Z,74.20
2018-08-07T16:30:13.670Z,73.70
2018-08-07T16:32:41.995Z,74.00
2018-08-07T16:37:38.668Z,74.30
2018-08-07T16:40:10.356Z,73.30
2018-08-07T16:42:38.930Z,73.30
2018-08-07T16:45:09.657Z,73.50
2018-08-07T16:47:38.346Z,73.20
2018-08-07T16:50:08.030Z,73.70
2018-08-07T16:52:36.414Z,73.80
2018-08-07T16:55:05.436Z,73.10
2018-08-07T16:57:33.789Z,72.60
2018-08-07T17:00:02.450Z,73.70
2018-08-07T17:02:30.819Z,72.40
2018-08-07T17:04:59.345Z,71.80
2018-08-07T17:07:27.680Z,71.90
2018-08-07T17:09:56.008Z,70.90
2018-08-07T17:12:24.392Z,71.70
2018-08-07T17:14:52.801Z,71.40
2018-08-07T17:17:21.173Z,70.40
2018-08-07T17:19:49.535Z,69.80
2018-08-07T17:22:18.077Z,69.80
2018-08-07T17:24:46.328Z,69.70
2018-08-07T17:27:14.833Z,69.20
2018-08-07T17:29:43.205Z,68.00
2018-08-07T17:32:11.585Z,67.80
2018-08-07T17:34:39.947Z,68.50
2018-08-07T17:37:08.308Z,68.20
2018-08-07T17:39:36.701Z,67.80
2018-08-07T17:42:05.143Z,67.30
2018-08-07T17:44:33.520Z,67.40
2018-08-07T17:47:01.978Z,67.60
2018-08-07T17:49:30.489Z,67.10
2018-08-07T17:51:59.363Z,66.70
2018-08-07T17:54:27.768Z,66.80
2018-08-07T17:56:56.198Z,66.60
2018-08-07T17:59:24.571Z,66.70
2018-08-07T18:01:52.930Z,67.40
2018-08-07T18:04:21.312Z,67.20
2018-08-07T18:06:49.700Z,66.70
2018-08-07T18:09:18.054Z,66.70
2018-08-07T18:11:46.465Z,66.80
2018-08-07T18:14:14.935Z,67.10
2018-08-07T18:16:43.301Z,67.30
2018-08-07T18:19:11.720Z,67.70
2018-08-07T18:21:40.215Z,67.30
2018-08-07T18:24:08.604Z,67.30
2018-08-07T18:26:36.974Z,67.40
2018-08-07T18:29:05.353Z,67.40
2018-08-07T18:31:33.699Z,67.00
2018-08-07T18:34:02.310Z,66.80
2018-08-07T18:36:30.638Z,67.10
2018-08-07T18:38:59.031Z,67.10
2018-08-07T18:41:27.428Z,67.50
2018-08-07T18:43:55.764Z,67.00
2018-08-07T18:46:24.366Z,66.90
2018-08-07T18:48:53.185Z,68.10
2018-08-07T18:51:21.647Z,67.00
2018-08-07T18:53:50.253Z,67.20
2018-08-07T18:56:18.590Z,67.40
2018-08-07T18:58:46.954Z,66.90
2018-08-07T19:01:15.355Z,67.50
2018-08-07T19:03:43.887Z,67.60
2018-08-07T19:06:12.302Z,67.30
2018-08-07T19:08:40.669Z,67.30
2018-08-07T19:11:09.176Z,67.40
2018-08-07T19:13:37.557Z,67.80
2018-08-07T19:16:06.202Z,67.50
2018-08-07T19:18:34.663Z,67.50
2018-08-07T19:21:03.053Z,67.90
2018-08-07T19:23:31.442Z,67.60
2018-08-07T19:25:59.869Z,69.10
2018-08-07T19:28:28.251Z,68.20
2018-08-07T19:30:56.707Z,68.20
2018-08-07T19:33:25.093Z,68.00
2018-08-07T19:35:53.509Z,68.20
2018-08-07T19:38:21.903Z,68.80
2018-08-07T19:40:50.336Z,70.90
2018-08-07T19:43:18.753Z,71.20
2018-08-07T19:45:47.159Z,68.70
2018-08-07T19:48:16.185Z,69.50
2018-08-07T19:50:44.604Z,69.20
2018-08-07T19:53:12.934Z,70.30
2018-08-07T19:55:41.480Z,69.50
2018-08-07T19:58:09.765Z,69.60
2018-08-07T20:00:38.101Z,69.90
2018-08-07T20:03:06.508Z,70.20
2018-08-07T20:05:34.853Z,69.80
2018-08-07T20:08:03.316Z,69.70
2018-08-07T20:10:31.656Z,70.20
2018-08-07T20:13:00.078Z,69.40
2018-08-07T20:15:28.886Z,68.90
2018-08-07T20:17:57.660Z,68.80
2018-08-07T20:20:26.292Z,68.60
2018-08-07T20:22:55.157Z,68.90
2018-08-07T20:25:23.718Z,68.90
2018-08-07T20:27:52.085Z,69.20
2018-08-07T20:30:21.697Z,69.20
2018-08-07T20:32:51.391Z,69.20
2018-08-07T20:35:19.917Z,69.20
2018-08-07T20:38:26.655Z,69.40
2018-08-07T20:40:55.184Z,69.20
2018-08-07T20:43:23.526Z,69.30
2018-08-07T20:45:51.873Z,69.50
2018-08-07T20:48:20.230Z,69.30
2018-08-07T20:50:48.572Z,69.40
2018-08-07T20:53:17.099Z,69.40
2018-08-07T20:55:45.603Z,70.20
2018-08-07T20:58:13.936Z,69.40
2018-08-07T21:00:42.537Z,69.60
2018-08-07T21:03:10.876Z,69.60
2018-08-07T21:05:39.220Z,69.40
2018-08-07T21:08:07.846Z,69.50
2018-08-07T21:10:36.193Z,70.70
2018-08-07T21:13:04.525Z,70.70
2018-08-07T21:15:33.106Z,70.80
2018-08-07T21:18:01.441Z,71.10
2018-08-07T21:20:29.769Z,71.80
2018-08-07T21:22:58.150Z,71.70
2018-08-07T21:25:26.469Z,71.80
2018-08-07T21:27:57.309Z,72.00
2018-08-07T21:30:27.401Z,72.00
2018-08-07T21:32:55.732Z,72.20
2018-08-07T21:35:24.081Z,72.20
2018-08-07T21:37:52.435Z,72.60
2018-08-07T21:40:21.815Z,72.50
2018-08-07T21:42:51.401Z,72.60
2018-08-07T21:45:19.832Z,72.30
2018-08-07T21:47:48.333Z,72.30
2018-08-07T21:50:18.486Z,72.50
2018-08-07T21:52:46.920Z,72.90
2018-08-07T21:55:16.524Z,73.20
2018-08-07T21:57:44.916Z,73.40
2018-08-07T22:00:21.918Z,73.50
2018-08-07T22:02:50.296Z,73.50
2018-08-07T22:05:18.654Z,73.70
2018-08-07T22:07:46.998Z,73.80
2018-08-07T22:10:18.146Z,73.70
2018-08-07T22:12:46.767Z,73.30
2018-08-07T22:15:15.988Z,73.10
2018-08-07T22:17:44.581Z,72.80
2018-08-07T22:20:13.357Z,73.10
2018-08-07T22:22:41.763Z,73.60
2018-08-07T22:25:10.496Z,74.20
2018-08-07T22:27:38.919Z,74.30
2018-08-07T22:30:10.288Z,74.70
2018-08-07T22:32:38.704Z,74.80
2018-08-07T22:35:08.342Z,75.40
2018-08-07T22:37:37.004Z,75.90
2018-08-07T22:40:05.593Z,76.20
2018-08-07T22:42:34.371Z,76.20
2018-08-07T22:45:02.721Z,76.20
2018-08-07T22:47:31.145Z,76.30
2018-08-07T22:49:59.469Z,77.20
2018-08-07T22:52:27.847Z,76.20
2018-08-07T22:54:56.186Z,76.20
2018-08-07T22:57:24.765Z,76.30
2018-08-07T22:59:53.144Z,76.00
2018-08-07T23:02:21.438Z,75.80
2018-08-07T23:04:49.780Z,75.60
2018-08-07T23:07:18.113Z,75.70
2018-08-07T23:09:46.652Z,75.70
2018-08-07T23:12:15.003Z,75.70
2018-08-07T23:14:43.344Z,75.80
2018-08-07T23:17:11.729Z,76.20
2018-08-07T23:19:40.049Z,77.20
2018-08-07T23:22:08.462Z,77.10
2018-08-07T23:24:36.765Z,77.30
2018-08-07T23:27:05.260Z,77.60
2018-08-07T23:29:33.579Z,77.70
2018-08-07T23:32:01.955Z,77.90
2018-08-07T23:34:30.312Z,78.10
2018-08-07T23:36:58.626Z,77.80
2018-08-07T23:39:26.958Z,77.60
2018-08-07T23:41:55.382Z,77.40
2018-08-07T23:44:23.710Z,77.10
2018-08-07T23:46:52.077Z,77.10
2018-08-07T23:49:20.468Z,77.30
2018-08-07T23:51:48.785Z,77.50
2018-08-07T23:54:17.384Z,77.80
2018-08-07T23:56:45.720Z,77.50
2018-08-07T23:59:14.057Z,78.60
